sensor_id;sensor_type;location;lat;lon;timestamp;pressure;altitude;pressure_sealevel;temperature;humidity
3780;BME280;1905;52.482;9.802;2023-03-13T00:01:02;99956.41;;;6.02;100.00
3780;BME280;1905;52.482;9.802;2023-03-13T00:03:37;99952.03;;;6.02;100.00
3780;BME280;1905;52.482;9.802;2023-03-13T00:06:05;99946.78;;;6.02;100.00
3780;BME280;1905;52.482;9.802;2023-03-13T00:08:33;99946.78;;;6.02;100.00
3780;BME280;1905;52.482;9.802;2023-03-13T00:11:01;99938.13;;;6.00;100.00
3780;BME280;1905;52.482;9.802;2023-03-13T00:13:29;99940.47;;;6.08;100.00
3780;BME280;1905;52.482;9.802;2023-03-13T00:16:01;99932.63;;;6.06;100.00
3780;BME280;1905;52.482;9.802;2023-03-13T00:18:29;99936.19;;;6.05;100.00
3780;BME280;1905;52.482;9.802;2023-03-13T00:20:58;99929.34;;;6.01;100.00
3780;BME280;1905;52.482;9.802;2023-03-13T00:23:27;99920.47;;;6.05;100.00
3780;BME280;1905;52.482;9.802;2023-03-13T00:25:56;99913.28;;;6.10;100.00
3780;BME280;1905;52.482;9.802;2023-03-13T00:28:26;99915.81;;;6.12;100.00
3780;BME280;1905;52.482;9.802;2023-03-13T00:30:59;99915.13;;;6.08;100.00
3780;BME280;1905;52.482;9.802;2023-03-13T00:33:27;99908.03;;;6.10;100.00
3780;BME280;1905;52.482;9.802;2023-03-13T00:35:58;99909.88;;;6.08;100.00
3780;BME280;1905;52.482;9.802;2023-03-13T00:38:27;99902.91;;;6.07;100.00
3780;BME280;1905;52.482;9.802;2023-03-13T00:40:59;99902.88;;;6.09;100.00
3780;BME280;1905;52.482;9.802;2023-03-13T00:43:27;99893.31;;;6.06;100.00
3780;BME280;1905;52.482;9.802;2023-03-13T00:45:55;99896.59;;;6.13;100.00
3780;BME280;1905;52.482;9.802;2023-03-13T00:48:23;99896.69;;;6.10;100.00
3780;BME280;1905;52.482;9.802;2023-03-13T00:50:52;99895.69;;;6.14;100.00
3780;BME280;1905;52.482;9.802;2023-03-13T00:53:21;99883.28;;;6.17;100.00
3780;BME280;1905;52.482;9.802;2023-03-13T00:55:50;99885.91;;;6.17;100.00
3780;BME280;1905;52.482;9.802;2023-03-13T00:58:19;99874.63;;;6.15;100.00
3780;BME280;1905;52.482;9.802;2023-03-13T01:00:46;99872.94;;;6.14;100.00
3780;BME280;1905;52.482;9.802;2023-03-13T01:03:14;99870.19;;;6.17;100.00
3780;BME280;1905;52.482;9.802;2023-03-13T01:05:42;99863.69;;;6.27;100.00
3780;BME280;1905;52.482;9.802;2023-03-13T01:08:09;99853.97;;;6.29;100.00
3780;BME280;1905;52.482;9.802;2023-03-13T01:10:38;99855.75;;;6.29;99.97
3780;BME280;1905;52.482;9.802;2023-03-13T01:13:06;99856.38;;;6.35;99.60
3780;BME280;1905;52.482;9.802;2023-03-13T01:15:34;99852.94;;;6.33;99.85
3780;BME280;1905;52.482;9.802;2023-03-13T01:18:02;99846.13;;;6.29;99.53
3780;BME280;1905;52.482;9.802;2023-03-13T01:20:31;99846.13;;;6.29;98.74
3780;BME280;1905;52.482;9.802;2023-03-13T01:22:58;99842.59;;;6.30;99.93
3780;BME280;1905;52.482;9.802;2023-03-13T01:25:26;99844.03;;;6.37;99.26
3780;BME280;1905;52.482;9.802;2023-03-13T01:27:55;99839.69;;;6.36;99.25
3780;BME280;1905;52.482;9.802;2023-03-13T01:30:22;99835.41;;;6.35;99.18
3780;BME280;1905;52.482;9.802;2023-03-13T01:32:50;99828.31;;;6.37;99.36
3780;BME280;1905;52.482;9.802;2023-03-13T01:35:17;99816.09;;;6.36;99.50
3780;BME280;1905;52.482;9.802;2023-03-13T01:37:45;99820.56;;;6.34;99.56
3780;BME280;1905;52.482;9.802;2023-03-13T01:40:13;99807.34;;;6.37;100.00
3780;BME280;1905;52.482;9.802;2023-03-13T01:42:55;99814.31;;;6.38;99.17
3780;BME280;1905;52.482;9.802;2023-03-13T01:46:02;99807.22;;;6.40;100.00
3780;BME280;1905;52.482;9.802;2023-03-13T01:48:42;99801.97;;;6.40;100.00
3780;BME280;1905;52.482;9.802;2023-03-13T01:51:17;99790.38;;;6.46;99.88
3780;BME280;1905;52.482;9.802;2023-03-13T01:53:49;99791.41;;;6.42;99.56
3780;BME280;1905;52.482;9.802;2023-03-13T01:56:20;99784.28;;;6.45;100.00
3780;BME280;1905;52.482;9.802;2023-03-13T01:58:51;99768.47;;;6.47;99.91
3780;BME280;1905;52.482;9.802;2023-03-13T02:01:19;99775.38;;;6.49;100.00
3780;BME280;1905;52.482;9.802;2023-03-13T02:03:47;99767.88;;;6.40;99.83
3780;BME280;1905;52.482;9.802;2023-03-13T02:06:16;99752.81;;;6.45;100.00
3780;BME280;1905;52.482;9.802;2023-03-13T02:08:47;99752.81;;;6.45;100.00
3780;BME280;1905;52.482;9.802;2023-03-13T02:11:22;99745.03;;;6.44;100.00
3780;BME280;1905;52.482;9.802;2023-03-13T02:13:53;99745.31;;;6.36;99.67
3780;BME280;1905;52.482;9.802;2023-03-13T02:16:22;99739.78;;;6.44;100.00
3780;BME280;1905;52.482;9.802;2023-03-13T02:18:50;99728.44;;;6.43;100.00
3780;BME280;1905;52.482;9.802;2023-03-13T02:21:25;99725.59;;;6.48;100.00
3780;BME280;1905;52.482;9.802;2023-03-13T02:24:02;99720.56;;;6.43;100.00
3780;BME280;1905;52.482;9.802;2023-03-13T02:26:32;99707.56;;;6.40;100.00
3780;BME280;1905;52.482;9.802;2023-03-13T02:29:00;99706.38;;;6.47;100.00
3780;BME280;1905;52.482;9.802;2023-03-13T02:31:28;99705.53;;;6.47;100.00
3780;BME280;1905;52.482;9.802;2023-03-13T02:33:58;99703.22;;;6.39;100.00
3780;BME280;1905;52.482;9.802;2023-03-13T02:36:29;99692.88;;;6.36;99.70
3780;BME280;1905;52.482;9.802;2023-03-13T02:39:02;99689.44;;;6.36;100.00
3780;BME280;1905;52.482;9.802;2023-03-13T02:41:33;99682.34;;;6.38;100.00
3780;BME280;1905;52.482;9.802;2023-03-13T02:44:01;99677.13;;;6.36;100.00
3780;BME280;1905;52.482;9.802;2023-03-13T02:46:42;99671.84;;;6.38;100.00
3780;BME280;1905;52.482;9.802;2023-03-13T02:49:23;99657.97;;;6.36;100.00
3780;BME280;1905;52.482;9.802;2023-03-13T02:51:53;99656.28;;;6.33;99.84
3780;BME280;1905;52.482;9.802;2023-03-13T02:54:27;99651.06;;;6.33;100.00
3780;BME280;1905;52.482;9.802;2023-03-13T02:57:01;99639.41;;;6.40;100.00
3780;BME280;1905;52.482;9.802;2023-03-13T02:59:29;99631.88;;;6.33;100.00
3780;BME280;1905;52.482;9.802;2023-03-13T03:01:57;99621.69;;;6.45;100.00
3780;BME280;1905;52.482;9.802;2023-03-13T03:04:25;99615.16;;;6.35;100.00
3780;BME280;1905;52.482;9.802;2023-03-13T03:06:55;99611.69;;;6.35;100.00
3780;BME280;1905;52.482;9.802;2023-03-13T03:09:23;99602.03;;;6.35;100.00
3780;BME280;1905;52.482;9.802;2023-03-13T03:11:55;99592.19;;;6.40;100.00
3780;BME280;1905;52.482;9.802;2023-03-13T03:14:27;99587.81;;;6.41;100.00
3780;BME280;1905;52.482;9.802;2023-03-13T03:16:55;99578.16;;;6.41;100.00
3780;BME280;1905;52.482;9.802;2023-03-13T03:19:24;99579.00;;;6.42;100.00
3780;BME280;1905;52.482;9.802;2023-03-13T03:21:52;99567.66;;;6.41;100.00
3780;BME280;1905;52.482;9.802;2023-03-13T03:24:20;99570.16;;;6.44;100.00
3780;BME280;1905;52.482;9.802;2023-03-13T03:26:48;99556.13;;;6.45;100.00
3780;BME280;1905;52.482;9.802;2023-03-13T03:29:22;99554.38;;;6.46;100.00
3780;BME280;1905;52.482;9.802;2023-03-13T03:31:54;99544.72;;;6.46;100.00
3780;BME280;1905;52.482;9.802;2023-03-13T03:34:22;99542.13;;;6.46;100.00
3780;BME280;1905;52.482;9.802;2023-03-13T03:36:50;99520.06;;;6.50;100.00
3780;BME280;1905;52.482;9.802;2023-03-13T03:39:17;99523.75;;;6.46;100.00
3780;BME280;1905;52.482;9.802;2023-03-13T03:41:45;99524.53;;;6.48;100.00
3780;BME280;1905;52.482;9.802;2023-03-13T03:44:13;99512.31;;;6.47;100.00
3780;BME280;1905;52.482;9.802;2023-03-13T03:46:54;99504.47;;;6.47;100.00
3780;BME280;1905;52.482;9.802;2023-03-13T03:49:24;99507.16;;;6.46;100.00
3780;BME280;1905;52.482;9.802;2023-03-13T03:51:52;99490.31;;;6.51;100.00
3780;BME280;1905;52.482;9.802;2023-03-13T03:54:26;99488.59;;;6.50;100.00
3780;BME280;1905;52.482;9.802;2023-03-13T03:56:55;99481.34;;;6.55;100.00
3780;BME280;1905;52.482;9.802;2023-03-13T03:59:22;99479.34;;;6.60;100.00
3780;BME280;1905;52.482;9.802;2023-03-13T04:01:57;99475.81;;;6.62;100.00
3780;BME280;1905;52.482;9.802;2023-03-13T04:04:27;99469.53;;;6.66;100.00
3780;BME280;1905;52.482;9.802;2023-03-13T04:07:01;99463.47;;;6.64;100.00
3780;BME280;1905;52.482;9.802;2023-03-13T04:09:30;99463.63;;;6.60;100.00
3780;BME280;1905;52.482;9.802;2023-03-13T04:11:59;99458.69;;;6.54;100.00
3780;BME280;1905;52.482;9.802;2023-03-13T04:14:30;99456.84;;;6.56;100.00
3780;BME280;1905;52.482;9.802;2023-03-13T04:17:00;99453.94;;;6.63;100.00
3780;BME280;1905;52.482;9.802;2023-03-13T04:19:28;99454.56;;;6.68;100.00
3780;BME280;1905;52.482;9.802;2023-03-13T04:21:55;99455.63;;;6.64;100.00
3780;BME280;1905;52.482;9.802;2023-03-13T04:24:23;99449.38;;;6.66;100.00
3780;BME280;1905;52.482;9.802;2023-03-13T04:26:51;99436.81;;;6.73;100.00
3780;BME280;1905;52.482;9.802;2023-03-13T04:29:19;99429.72;;;6.75;100.00
3780;BME280;1905;52.482;9.802;2023-03-13T04:31:57;99424.47;;;6.75;100.00
3780;BME280;1905;52.482;9.802;2023-03-13T04:34:36;99414.97;;;6.72;100.00
3780;BME280;1905;52.482;9.802;2023-03-13T04:37:03;99393.94;;;6.74;100.00
3780;BME280;1905;52.482;9.802;2023-03-13T04:39:49;99396.56;;;6.74;100.00
3780;BME280;1905;52.482;9.802;2023-03-13T04:42:37;99392.84;;;6.78;100.00
3780;BME280;1905;52.482;9.802;2023-03-13T04:45:31;99384.06;;;6.79;100.00
3780;BME280;1905;52.482;9.802;2023-03-13T04:48:12;99380.63;;;6.77;100.00
3780;BME280;1905;52.482;9.802;2023-03-13T04:50:47;99369.56;;;6.89;100.00
3780;BME280;1905;52.482;9.802;2023-03-13T04:53:29;99366.16;;;6.87;100.00
3780;BME280;1905;52.482;9.802;2023-03-13T04:56:20;99374.09;;;6.85;100.00
3780;BME280;1905;52.482;9.802;2023-03-13T04:59:26;99358.16;;;6.90;100.00
3780;BME280;1905;52.482;9.802;2023-03-13T05:02:04;99348.97;;;6.98;100.00
3780;BME280;1905;52.482;9.802;2023-03-13T05:04:55;99340.28;;;6.96;100.00
3780;BME280;1905;52.482;9.802;2023-03-13T05:07:24;99339.22;;;7.00;100.00
3780;BME280;1905;52.482;9.802;2023-03-13T05:10:03;99329.50;;;7.02;100.00
3780;BME280;1905;52.482;9.802;2023-03-13T05:13:01;99314.59;;;7.03;100.00
3780;BME280;1905;52.482;9.802;2023-03-13T05:15:36;99321.22;;;7.10;100.00
3780;BME280;1905;52.482;9.802;2023-03-13T05:18:32;99318.00;;;7.05;100.00
3780;BME280;1905;52.482;9.802;2023-03-13T05:21:10;99339.53;;;7.11;100.00
3780;BME280;1905;52.482;9.802;2023-03-13T05:24:00;99324.44;;;7.15;100.00
3780;BME280;1905;52.482;9.802;2023-03-13T05:27:01;99325.00;;;7.22;100.00
3780;BME280;1905;52.482;9.802;2023-03-13T05:29:37;99326.63;;;7.24;100.00
3780;BME280;1905;52.482;9.802;2023-03-13T05:32:14;99313.19;;;7.30;100.00
3780;BME280;1905;52.482;9.802;2023-03-13T05:35:20;99300.56;;;7.37;100.00
3780;BME280;1905;52.482;9.802;2023-03-13T05:38:06;99293.03;;;7.31;100.00
3780;BME280;1905;52.482;9.802;2023-03-13T05:40:42;99295.41;;;7.35;100.00
3780;BME280;1905;52.482;9.802;2023-03-13T05:43:42;99287.09;;;7.43;100.00
3780;BME280;1905;52.482;9.802;2023-03-13T05:46:28;99279.06;;;7.46;100.00
3780;BME280;1905;52.482;9.802;2023-03-13T05:49:13;99284.06;;;7.50;100.00
3780;BME280;1905;52.482;9.802;2023-03-13T05:51:59;99273.22;;;7.56;100.00
3780;BME280;1905;52.482;9.802;2023-03-13T05:54:45;99271.38;;;7.58;100.00
3780;BME280;1905;52.482;9.802;2023-03-13T05:57:33;99272.16;;;7.60;100.00
3780;BME280;1905;52.482;9.802;2023-03-13T06:00:19;99269.44;;;7.62;100.00
3780;BME280;1905;52.482;9.802;2023-03-13T06:03:07;99267.50;;;7.65;100.00
3780;BME280;1905;52.482;9.802;2023-03-13T06:05:40;99256.47;;;7.74;100.00
3780;BME280;1905;52.482;9.802;2023-03-13T06:08:20;99257.06;;;7.79;100.00
3780;BME280;1905;52.482;9.802;2023-03-13T06:10:48;99256.97;;;7.81;100.00
3780;BME280;1905;52.482;9.802;2023-03-13T06:13:17;99258.59;;;7.84;100.00
3780;BME280;1905;52.482;9.802;2023-03-13T06:15:51;99255.78;;;7.87;100.00
3780;BME280;1905;52.482;9.802;2023-03-13T06:18:39;99246.56;;;7.95;100.00
3780;BME280;1905;52.482;9.802;2023-03-13T06:21:06;99240.00;;;8.02;100.00
3780;BME280;1905;52.482;9.802;2023-03-13T06:23:34;99240.69;;;8.06;100.00
3780;BME280;1905;52.482;9.802;2023-03-13T06:26:01;99231.88;;;8.07;100.00
3780;BME280;1905;52.482;9.802;2023-03-13T06:28:31;99234.91;;;8.15;100.00
3780;BME280;1905;52.482;9.802;2023-03-13T06:31:00;99226.25;;;8.13;100.00
3780;BME280;1905;52.482;9.802;2023-03-13T06:33:27;99223.28;;;8.19;100.00
3780;BME280;1905;52.482;9.802;2023-03-13T06:35:56;99224.03;;;8.21;100.00
3780;BME280;1905;52.482;9.802;2023-03-13T06:38:24;99234.22;;;8.27;100.00
3780;BME280;1905;52.482;9.802;2023-03-13T06:40:51;99228.97;;;8.27;100.00
3780;BME280;1905;52.482;9.802;2023-03-13T06:43:19;99216.41;;;8.32;100.00
3780;BME280;1905;52.482;9.802;2023-03-13T06:45:49;99229.47;;;8.33;100.00
3780;BME280;1905;52.482;9.802;2023-03-13T06:48:16;99229.94;;;8.40;100.00
3780;BME280;1905;52.482;9.802;2023-03-13T06:50:44;99220.97;;;8.44;100.00
3780;BME280;1905;52.482;9.802;2023-03-13T06:53:14;99218.91;;;8.49;100.00
3780;BME280;1905;52.482;9.802;2023-03-13T06:55:42;99208.56;;;8.46;100.00
3780;BME280;1905;52.482;9.802;2023-03-13T06:58:10;99210.72;;;8.54;100.00
3780;BME280;1905;52.482;9.802;2023-03-13T07:00:55;99205.97;;;8.60;100.00
3780;BME280;1905;52.482;9.802;2023-03-13T07:03:23;99203.22;;;8.62;100.00
3780;BME280;1905;52.482;9.802;2023-03-13T07:05:54;99205.22;;;8.58;100.00
3780;BME280;1905;52.482;9.802;2023-03-13T07:08:22;99194.13;;;8.67;100.00
3780;BME280;1905;52.482;9.802;2023-03-13T07:10:51;99200.81;;;8.73;100.00
3780;BME280;1905;52.482;9.802;2023-03-13T07:13:18;99201.47;;;8.76;100.00
3780;BME280;1905;52.482;9.802;2023-03-13T07:15:47;99194.50;;;8.75;100.00
3780;BME280;1905;52.482;9.802;2023-03-13T07:18:16;99202.59;;;8.86;100.00
3780;BME280;1905;52.482;9.802;2023-03-13T07:20:51;99195.47;;;8.88;100.00
3780;BME280;1905;52.482;9.802;2023-03-13T07:23:19;99198.13;;;8.88;100.00
3780;BME280;1905;52.482;9.802;2023-03-13T07:25:52;99197.81;;;8.93;100.00
3780;BME280;1905;52.482;9.802;2023-03-13T07:28:21;99196.78;;;8.95;100.00
3780;BME280;1905;52.482;9.802;2023-03-13T07:30:48;99203.53;;;8.99;100.00
3780;BME280;1905;52.482;9.802;2023-03-13T07:33:18;99199.06;;;9.02;100.00
3780;BME280;1905;52.482;9.802;2023-03-13T07:35:49;99199.44;;;9.10;100.00
3780;BME280;1905;52.482;9.802;2023-03-13T07:38:17;99201.03;;;9.12;100.00
3780;BME280;1905;52.482;9.802;2023-03-13T07:40:48;99190.19;;;9.17;100.00
3780;BME280;1905;52.482;9.802;2023-03-13T07:43:16;99188.13;;;9.22;100.00
3780;BME280;1905;52.482;9.802;2023-03-13T07:45:52;99188.91;;;9.24;100.00
3780;BME280;1905;52.482;9.802;2023-03-13T07:48:22;99194.91;;;9.26;100.00
3780;BME280;1905;52.482;9.802;2023-03-13T07:50:50;99196.59;;;9.27;100.00
3780;BME280;1905;52.482;9.802;2023-03-13T07:53:17;99201.66;;;9.30;100.00
3780;BME280;1905;52.482;9.802;2023-03-13T07:55:55;99201.28;;;9.36;100.00
3780;BME280;1905;52.482;9.802;2023-03-13T07:58:23;99211.44;;;9.42;100.00
3780;BME280;1905;52.482;9.802;2023-03-13T08:00:51;99211.81;;;9.50;100.00
3780;BME280;1905;52.482;9.802;2023-03-13T08:03:20;99212.47;;;9.53;100.00
3780;BME280;1905;52.482;9.802;2023-03-13T08:05:56;99218.31;;;9.58;100.00
3780;BME280;1905;52.482;9.802;2023-03-13T08:08:24;99211.19;;;9.73;100.00
3780;BME280;1905;52.482;9.802;2023-03-13T08:10:52;99214.19;;;9.81;100.00
3780;BME280;1905;52.482;9.802;2023-03-13T08:13:19;99209.38;;;9.88;100.00
3780;BME280;1905;52.482;9.802;2023-03-13T08:15:47;99205.31;;;9.96;100.00
3780;BME280;1905;52.482;9.802;2023-03-13T08:18:14;99206.91;;;9.99;100.00
3780;BME280;1905;52.482;9.802;2023-03-13T08:20:42;99205.44;;;10.07;100.00
3780;BME280;1905;52.482;9.802;2023-03-13T08:23:12;99201.66;;;10.11;100.00
3780;BME280;1905;52.482;9.802;2023-03-13T08:25:39;99198.44;;;10.21;100.00
3780;BME280;1905;52.482;9.802;2023-03-13T08:28:07;99207.84;;;10.25;100.00
3780;BME280;1905;52.482;9.802;2023-03-13T08:30:36;99194.78;;;10.36;100.00
3780;BME280;1905;52.482;9.802;2023-03-13T08:33:03;99191.00;;;10.40;100.00
3780;BME280;1905;52.482;9.802;2023-03-13T08:35:33;99191.75;;;10.42;100.00
3780;BME280;1905;52.482;9.802;2023-03-13T08:38:00;99189.44;;;10.50;100.00
3780;BME280;1905;52.482;9.802;2023-03-13T08:40:33;99193.56;;;10.54;100.00
3780;BME280;1905;52.482;9.802;2023-03-13T08:43:01;99187.13;;;10.58;100.00
3780;BME280;1905;52.482;9.802;2023-03-13T08:45:28;99191.06;;;10.65;100.00
3780;BME280;1905;52.482;9.802;2023-03-13T08:47:56;99190.09;;;10.66;100.00
3780;BME280;1905;52.482;9.802;2023-03-13T08:50:23;99186.84;;;10.75;100.00
3780;BME280;1905;52.482;9.802;2023-03-13T08:52:51;99185.56;;;10.81;100.00
3780;BME280;1905;52.482;9.802;2023-03-13T08:55:18;99175.66;;;10.84;100.00
3780;BME280;1905;52.482;9.802;2023-03-13T08:57:47;99181.75;;;10.85;100.00
3780;BME280;1905;52.482;9.802;2023-03-13T09:00:15;99166.47;;;10.90;100.00
3780;BME280;1905;52.482;9.802;2023-03-13T09:02:44;99170.56;;;10.94;100.00
3780;BME280;1905;52.482;9.802;2023-03-13T09:05:11;99172.44;;;11.04;100.00
3780;BME280;1905;52.482;9.802;2023-03-13T09:07:39;99159.97;;;11.06;100.00
3780;BME280;1905;52.482;9.802;2023-03-13T09:10:07;99163.16;;;11.11;100.00
3780;BME280;1905;52.482;9.802;2023-03-13T09:12:35;99161.97;;;11.15;100.00
3780;BME280;1905;52.482;9.802;2023-03-13T09:15:05;99157.22;;;11.20;100.00
3780;BME280;1905;52.482;9.802;2023-03-13T09:17:32;99151.63;;;11.25;100.00
3780;BME280;1905;52.482;9.802;2023-03-13T09:20:00;99148.44;;;11.32;100.00
3780;BME280;1905;52.482;9.802;2023-03-13T09:22:27;99147.25;;;11.36;100.00
3780;BME280;1905;52.482;9.802;2023-03-13T09:24:55;99143.22;;;11.44;100.00
3780;BME280;1905;52.482;9.802;2023-03-13T09:27:23;99134.31;;;11.45;100.00
3780;BME280;1905;52.482;9.802;2023-03-13T09:29:50;99142.75;;;11.50;100.00
3780;BME280;1905;52.482;9.802;2023-03-13T09:32:19;99144.25;;;11.54;100.00
3780;BME280;1905;52.482;9.802;2023-03-13T09:34:46;99140.19;;;11.61;100.00
3780;BME280;1905;52.482;9.802;2023-03-13T09:37:15;99162.81;;;11.65;100.00
3780;BME280;1905;52.482;9.802;2023-03-13T09:39:43;99149.78;;;11.74;100.00
3780;BME280;1905;52.482;9.802;2023-03-13T09:42:14;99146.06;;;11.77;100.00
3780;BME280;1905;52.482;9.802;2023-03-13T09:44:45;99145.13;;;11.78;100.00
3780;BME280;1905;52.482;9.802;2023-03-13T09:47:21;99132.63;;;11.80;100.00
3780;BME280;1905;52.482;9.802;2023-03-13T09:49:53;99137.91;;;11.80;100.00
3780;BME280;1905;52.482;9.802;2023-03-13T09:52:24;99132.31;;;11.84;100.00
3780;BME280;1905;52.482;9.802;2023-03-13T09:54:55;99137.03;;;11.92;100.00
3780;BME280;1905;52.482;9.802;2023-03-13T09:57:30;99126.09;;;11.97;100.00
3780;BME280;1905;52.482;9.802;2023-03-13T10:00:02;99129.72;;;11.96;100.00
3780;BME280;1905;52.482;9.802;2023-03-13T10:02:37;99131.78;;;12.03;100.00
3780;BME280;1905;52.482;9.802;2023-03-13T10:05:11;99131.56;;;12.06;100.00
3780;BME280;1905;52.482;9.802;2023-03-13T10:07:40;99129.41;;;12.11;100.00
3780;BME280;1905;52.482;9.802;2023-03-13T10:10:13;99128.44;;;12.12;100.00
3780;BME280;1905;52.482;9.802;2023-03-13T10:12:44;99134.25;;;12.17;100.00
3780;BME280;1905;52.482;9.802;2023-03-13T10:15:34;99142.91;;;12.19;100.00
3780;BME280;1905;52.482;9.802;2023-03-13T10:18:13;99145.34;;;12.22;100.00
3780;BME280;1905;52.482;9.802;2023-03-13T10:20:45;99143.91;;;12.29;100.00
3780;BME280;1905;52.482;9.802;2023-03-13T10:23:18;99143.91;;;12.29;100.00
3780;BME280;1905;52.482;9.802;2023-03-13T10:25:46;99130.56;;;12.31;100.00
3780;BME280;1905;52.482;9.802;2023-03-13T10:28:15;99128.41;;;12.36;100.00
3780;BME280;1905;52.482;9.802;2023-03-13T10:30:47;99139.72;;;12.38;100.00
3780;BME280;1905;52.482;9.802;2023-03-13T10:33:21;99127.09;;;12.41;100.00
3780;BME280;1905;52.482;9.802;2023-03-13T10:36:01;99128.31;;;12.48;100.00
3780;BME280;1905;52.482;9.802;2023-03-13T10:38:35;99125.06;;;12.56;100.00
3780;BME280;1905;52.482;9.802;2023-03-13T10:41:19;99117.97;;;12.57;100.00
3780;BME280;1905;52.482;9.802;2023-03-13T10:43:51;99117.50;;;12.63;99.81
3780;BME280;1905;52.482;9.802;2023-03-13T10:46:26;99108.88;;;12.72;99.52
3780;BME280;1905;52.482;9.802;2023-03-13T10:48:56;99100.53;;;12.76;99.45
3780;BME280;1905;52.482;9.802;2023-03-13T10:51:36;99099.72;;;12.87;99.20
3780;BME280;1905;52.482;9.802;2023-03-13T10:54:15;99105.25;;;12.95;99.16
3780;BME280;1905;52.482;9.802;2023-03-13T10:56:43;99103.06;;;13.00;98.97
3780;BME280;1905;52.482;9.802;2023-03-13T10:59:20;99095.38;;;13.08;99.01
3780;BME280;1905;52.482;9.802;2023-03-13T11:01:49;99093.97;;;13.15;98.54
3780;BME280;1905;52.482;9.802;2023-03-13T11:04:26;99085.50;;;13.21;98.42
3780;BME280;1905;52.482;9.802;2023-03-13T11:07:00;99087.28;;;13.32;97.88
3780;BME280;1905;52.482;9.802;2023-03-13T11:09:28;99074.63;;;13.35;97.91
3780;BME280;1905;52.482;9.802;2023-03-13T11:12:02;99086.69;;;13.39;97.83
3780;BME280;1905;52.482;9.802;2023-03-13T11:14:30;99082.09;;;13.41;97.38
3780;BME280;1905;52.482;9.802;2023-03-13T11:17:03;99083.50;;;13.45;97.27
3780;BME280;1905;52.482;9.802;2023-03-13T11:19:42;99081.34;;;13.50;97.63
3780;BME280;1905;52.482;9.802;2023-03-13T11:22:32;99072.75;;;13.58;96.33
3780;BME280;1905;52.482;9.802;2023-03-13T11:25:08;99062.47;;;13.64;96.27
3780;BME280;1905;52.482;9.802;2023-03-13T11:27:45;99063.69;;;13.71;95.62
3780;BME280;1905;52.482;9.802;2023-03-13T11:30:21;99069.44;;;13.77;95.75
3780;BME280;1905;52.482;9.802;2023-03-13T11:32:54;99048.66;;;13.82;95.24
3780;BME280;1905;52.482;9.802;2023-03-13T11:35:36;99040.81;;;13.91;95.16
3780;BME280;1905;52.482;9.802;2023-03-13T11:38:08;99037.63;;;13.97;95.08
3780;BME280;1905;52.482;9.802;2023-03-13T11:40:46;99030.94;;;14.03;95.38
3780;BME280;1905;52.482;9.802;2023-03-13T11:43:35;99025.00;;;14.10;94.08
3780;BME280;1905;52.482;9.802;2023-03-13T11:46:15;99022.91;;;14.14;93.37
3780;BME280;1905;52.482;9.802;2023-03-13T11:49:08;99028.56;;;14.20;93.62
3780;BME280;1905;52.482;9.802;2023-03-13T11:51:50;99014.78;;;14.26;93.39
3780;BME280;1905;52.482;9.802;2023-03-13T11:54:45;99024.50;;;14.37;92.41
3780;BME280;1905;52.482;9.802;2023-03-13T11:57:20;99020.22;;;14.46;92.39
3780;BME280;1905;52.482;9.802;2023-03-13T12:00:06;99012.03;;;14.58;90.70
3780;BME280;1905;52.482;9.802;2023-03-13T12:02:44;99008.41;;;14.59;89.88
3780;BME280;1905;52.482;9.802;2023-03-13T12:05:17;99010.31;;;14.57;90.09
3780;BME280;1905;52.482;9.802;2023-03-13T12:07:50;99020.03;;;14.68;90.69
3780;BME280;1905;52.482;9.802;2023-03-13T12:10:24;99012.63;;;14.71;88.82
3780;BME280;1905;52.482;9.802;2023-03-13T12:12:58;99008.44;;;14.78;88.21
3780;BME280;1905;52.482;9.802;2023-03-13T12:15:31;99008.44;;;14.78;89.84
3780;BME280;1905;52.482;9.802;2023-03-13T12:18:03;98994.63;;;14.84;89.56
3780;BME280;1905;52.482;9.802;2023-03-13T12:20:39;98998.00;;;14.86;88.72
3780;BME280;1905;52.482;9.802;2023-03-13T12:23:17;99016.31;;;14.89;88.68
3780;BME280;1905;52.482;9.802;2023-03-13T12:25:50;98996.34;;;14.95;86.85
3780;BME280;1905;52.482;9.802;2023-03-13T12:28:28;98997.34;;;15.04;88.26
3780;BME280;1905;52.482;9.802;2023-03-13T12:31:03;98988.97;;;15.08;86.67
3780;BME280;1905;52.482;9.802;2023-03-13T12:33:39;98984.78;;;15.15;85.31
3780;BME280;1905;52.482;9.802;2023-03-13T12:36:12;98974.44;;;15.22;87.89
3780;BME280;1905;52.482;9.802;2023-03-13T12:38:46;98969.94;;;15.22;86.04
3780;BME280;1905;52.482;9.802;2023-03-13T12:41:23;98969.66;;;15.25;86.88
3780;BME280;1905;52.482;9.802;2023-03-13T12:43:53;98987.16;;;15.28;86.68
3780;BME280;1905;52.482;9.802;2023-03-13T12:46:41;98963.22;;;15.28;87.13
3780;BME280;1905;52.482;9.802;2023-03-13T12:49:20;98965.50;;;15.32;86.31
3780;BME280;1905;52.482;9.802;2023-03-13T12:52:07;98959.59;;;15.38;85.04
3780;BME280;1905;52.482;9.802;2023-03-13T12:54:48;98963.25;;;15.37;85.33
3780;BME280;1905;52.482;9.802;2023-03-13T12:57:32;98943.69;;;15.48;85.71
3780;BME280;1905;52.482;9.802;2023-03-13T13:00:13;98940.59;;;15.53;85.12
3780;BME280;1905;52.482;9.802;2023-03-13T13:02:42;98933.59;;;15.52;83.38
3780;BME280;1905;52.482;9.802;2023-03-13T13:05:17;98939.75;;;15.52;82.80
3780;BME280;1905;52.482;9.802;2023-03-13T13:07:52;98942.00;;;15.57;85.11
3780;BME280;1905;52.482;9.802;2023-03-13T13:10:23;98934.97;;;15.56;84.28
3780;BME280;1905;52.482;9.802;2023-03-13T13:13:17;98931.34;;;15.57;85.20
3780;BME280;1905;52.482;9.802;2023-03-13T13:15:46;98933.84;;;15.58;84.51
3780;BME280;1905;52.482;9.802;2023-03-13T13:18:23;98920.56;;;15.58;82.76
3780;BME280;1905;52.482;9.802;2023-03-13T13:21:19;98915.63;;;15.63;85.05
3780;BME280;1905;52.482;9.802;2023-03-13T13:23:47;98923.22;;;15.58;83.98
3780;BME280;1905;52.482;9.802;2023-03-13T13:26:50;98913.25;;;15.60;82.01
3780;BME280;1905;52.482;9.802;2023-03-13T13:32:37;98906.69;;;15.64;83.24
3780;BME280;1905;52.482;9.802;2023-03-13T13:35:19;98890.16;;;15.70;82.71
3780;BME280;1905;52.482;9.802;2023-03-13T13:37:47;98892.38;;;15.75;82.28
3780;BME280;1905;52.482;9.802;2023-03-13T13:40:21;98867.16;;;15.79;83.20
3780;BME280;1905;52.482;9.802;2023-03-13T13:42:52;98879.47;;;15.89;83.26
3780;BME280;1905;52.482;9.802;2023-03-13T13:45:39;98877.03;;;15.96;80.07
3780;BME280;1905;52.482;9.802;2023-03-13T13:48:28;98864.00;;;15.93;82.30
3780;BME280;1905;52.482;9.802;2023-03-13T13:51:31;98859.81;;;16.00;81.71
3780;BME280;1905;52.482;9.802;2023-03-13T13:54:00;98861.63;;;15.99;80.52
3780;BME280;1905;52.482;9.802;2023-03-13T13:56:31;98858.38;;;16.05;77.79